createdAt,value
2023-05-25T00:02:24.840Z,21.60
2023-05-25T00:04:53.485Z,29.45
2023-05-25T00:07:21.757Z,28.13
2023-05-25T00:09:49.992Z,25.70
2023-05-25T00:12:18.310Z,22.05
2023-05-25T00:14:48.336Z,25.63
2023-05-25T00:17:18.823Z,29.98
2023-05-25T00:19:47.199Z,29.35
2023-05-25T00:22:15.564Z,37.55
2023-05-25T00:24:43.874Z,31.77
2023-05-25T00:27:12.111Z,24.98
2023-05-25T00:29:40.437Z,25.00
2023-05-25T00:32:10.281Z,28.42
2023-05-25T00:34:38.601Z,36.60
2023-05-25T00:37:07.391Z,28.55
2023-05-25T00:39:35.637Z,21.30
2023-05-25T00:42:04.213Z,28.70
2023-05-25T00:44:32.529Z,22.52
2023-05-25T00:47:02.325Z,29.77
2023-05-25T00:49:35.028Z,24.70
2023-05-25T00:52:03.572Z,19.60
2023-05-25T00:54:33.522Z,31.92
2023-05-25T00:57:04.539Z,23.40
2023-05-25T00:59:41.371Z,24.65
2023-05-25T01:02:11.632Z,21.50
2023-05-25T01:04:45.442Z,29.40
2023-05-25T01:07:19.434Z,27.13
2023-05-25T01:09:49.709Z,25.98
2023-05-25T01:12:20.202Z,25.92
2023-05-25T01:14:49.430Z,26.35
2023-05-25T01:17:20.457Z,25.27
2023-05-25T01:20:08.143Z,25.05
2023-05-25T01:22:44.284Z,28.75
2023-05-25T01:25:17.701Z,23.08
2023-05-25T01:27:49.885Z,29.83
2023-05-25T01:30:20.600Z,23.27
2023-05-25T01:32:50.561Z,25.63
2023-05-25T01:35:21.824Z,28.88
2023-05-25T01:37:53.144Z,23.50
2023-05-25T01:40:21.402Z,22.95
2023-05-25T01:42:49.668Z,21.33
2023-05-25T01:45:18.053Z,21.73
2023-05-25T01:47:54.626Z,30.42
2023-05-25T01:50:28.079Z,28.33
2023-05-25T01:53:03.714Z,25.55
2023-05-25T01:55:35.968Z,28.15
2023-05-25T01:58:04.442Z,22.40
2023-05-25T02:00:33.712Z,24.70
2023-05-25T02:03:02.487Z,27.40
2023-05-25T02:05:31.110Z,37.20
2023-05-25T02:08:01.034Z,20.77
2023-05-25T02:10:29.260Z,19.05
2023-05-25T02:12:57.493Z,27.98
2023-05-25T02:15:26.057Z,23.10
2023-05-25T02:17:57.824Z,22.20
2023-05-25T02:20:26.203Z,28.75
2023-05-25T02:22:54.606Z,26.73
2023-05-25T02:25:24.270Z,21.05
2023-05-25T02:27:52.540Z,25.52
2023-05-25T02:30:21.001Z,20.27
2023-05-25T02:32:50.676Z,20.83
2023-05-25T02:35:19.134Z,32.65
2023-05-25T02:37:49.041Z,30.67
2023-05-25T02:40:19.273Z,32.25
2023-05-25T02:42:48.888Z,31.52
2023-05-25T02:45:17.216Z,21.30
2023-05-25T02:47:45.550Z,22.42
2023-05-25T02:50:13.952Z,41.70
2023-05-25T02:52:42.170Z,24.65
2023-05-25T02:55:13.310Z,26.23
2023-05-25T02:57:42.128Z,23.85
2023-05-25T03:00:13.238Z,24.65
2023-05-25T03:02:41.545Z,26.77
2023-05-25T03:05:10.372Z,33.00
2023-05-25T03:07:38.651Z,23.83
2023-05-25T03:10:07.566Z,22.40
2023-05-25T03:12:35.800Z,28.40
2023-05-25T03:15:04.185Z,26.90
2023-05-25T03:17:33.920Z,24.85
2023-05-25T03:20:02.306Z,26.83
2023-05-25T03:22:30.823Z,20.63
2023-05-25T03:24:59.732Z,19.20
2023-05-25T03:27:28.025Z,19.88
2023-05-25T03:29:56.260Z,26.05
2023-05-25T03:32:24.561Z,27.63
2023-05-25T03:34:54.275Z,23.70
2023-05-25T03:37:22.625Z,16.60
2023-05-25T03:39:50.921Z,24.05
2023-05-25T03:42:19.169Z,22.75
2023-05-25T03:44:47.449Z,24.73
2023-05-25T03:47:15.773Z,20.50
2023-05-25T03:49:44.098Z,21.33
2023-05-25T03:52:13.784Z,27.27
2023-05-25T03:54:42.019Z,26.45
2023-05-25T03:57:10.291Z,21.23
2023-05-25T03:59:38.579Z,16.17
2023-05-25T04:02:07.123Z,19.08
2023-05-25T04:04:35.537Z,17.08
2023-05-25T04:07:03.790Z,19.30
2023-05-25T04:09:33.490Z,20.77
2023-05-25T04:12:02.409Z,22.05
2023-05-25T04:14:30.675Z,19.25
2023-05-25T04:16:58.937Z,19.23
2023-05-25T04:19:27.200Z,18.10
2023-05-25T04:21:55.489Z,16.58
2023-05-25T04:24:23.799Z,22.90
2023-05-25T04:26:53.630Z,19.30
2023-05-25T04:29:21.877Z,18.52
2023-05-25T04:31:51.693Z,24.58
2023-05-25T04:34:21.556Z,23.30
2023-05-25T04:36:49.843Z,18.27
2023-05-25T04:39:18.703Z,27.27
2023-05-25T04:41:48.397Z,26.02
2023-05-25T04:44:19.971Z,20.98
2023-05-25T04:46:48.228Z,21.02
2023-05-25T04:49:19.060Z,15.00
2023-05-25T04:51:47.333Z,17.83
2023-05-25T04:54:15.866Z,12.63
2023-05-25T04:56:44.178Z,19.85
2023-05-25T04:59:12.648Z,19.48
2023-05-25T05:01:42.344Z,14.75
2023-05-25T05:04:11.077Z,19.60
2023-05-25T05:06:40.897Z,16.33
2023-05-25T05:09:09.960Z,22.50
2023-05-25T05:11:38.200Z,12.65
2023-05-25T05:14:06.487Z,14.05
2023-05-25T05:16:35.298Z,11.85
2023-05-25T05:19:05.188Z,9.83
2023-05-25T05:21:33.443Z,9.10
2023-05-25T05:24:02.232Z,10.23
2023-05-25T05:26:31.524Z,8.53
2023-05-25T05:29:02.429Z,9.40
2023-05-25T05:31:31.749Z,9.17
2023-05-25T05:34:00.471Z,7.17
2023-05-25T05:36:31.235Z,9.47
2023-05-25T05:39:03.473Z,9.73
2023-05-25T05:41:31.685Z,12.80
2023-05-25T05:44:02.245Z,5.80
2023-05-25T05:46:30.518Z,8.43
2023-05-25T05:48:58.742Z,7.40
2023-05-25T05:51:27.374Z,9.60
2023-05-25T05:53:56.987Z,7.50
2023-05-25T05:56:25.197Z,9.47
2023-05-25T05:58:54.580Z,9.43
2023-05-25T06:01:23.488Z,11.40
2023-05-25T06:03:52.982Z,12.03
2023-05-25T06:06:22.153Z,12.80
2023-05-25T06:08:50.409Z,7.87
2023-05-25T06:11:20.133Z,12.60
2023-05-25T06:13:48.452Z,8.30
2023-05-25T06:16:20.739Z,8.07
2023-05-25T06:18:49.047Z,11.47
2023-05-25T06:21:17.349Z,7.70
2023-05-25T06:23:45.712Z,8.30
2023-05-25T06:26:14.103Z,7.83
2023-05-25T06:28:43.735Z,9.10
2023-05-25T06:31:12.016Z,12.37
2023-05-25T06:33:40.220Z,12.10
2023-05-25T06:36:09.858Z,6.73
2023-05-25T06:38:38.138Z,8.23
2023-05-25T06:41:07.468Z,9.40
2023-05-25T06:43:35.768Z,15.87
2023-05-25T06:46:05.419Z,9.30
2023-05-25T06:48:33.707Z,11.03
2023-05-25T06:51:02.192Z,8.20
2023-05-25T06:53:30.515Z,13.60
2023-05-25T06:55:58.776Z,13.60
2023-05-25T06:58:27.380Z,9.70
2023-05-25T07:00:55.601Z,8.53
2023-05-25T07:03:25.230Z,8.40
2023-05-25T07:05:53.502Z,7.50
2023-05-25T07:08:21.760Z,8.00
2023-05-25T07:10:50.441Z,7.20
2023-05-25T07:13:18.838Z,10.80
2023-05-25T07:15:47.465Z,11.23
2023-05-25T07:18:16.271Z,11.80
2023-05-25T07:20:46.543Z,11.10
2023-05-25T07:23:15.188Z,9.90
2023-05-25T07:25:43.643Z,7.87
2023-05-25T07:28:12.108Z,7.70
2023-05-25T07:30:41.964Z,8.73
2023-05-25T07:33:10.337Z,7.40
2023-05-25T07:35:38.644Z,11.70
2023-05-25T07:38:08.244Z,11.50
2023-05-25T07:40:36.729Z,10.00
2023-05-25T07:43:06.863Z,11.10
2023-05-25T07:45:36.558Z,9.40
2023-05-25T07:48:07.306Z,15.93
2023-05-25T07:50:36.085Z,12.13
2023-05-25T07:53:08.290Z,12.40
2023-05-25T07:55:36.573Z,10.20
2023-05-25T07:58:07.423Z,5.07
2023-05-25T08:00:35.720Z,12.90
2023-05-25T08:03:04.182Z,10.40
2023-05-25T08:05:32.724Z,10.43
2023-05-25T08:08:01.079Z,12.10
2023-05-25T08:10:32.516Z,11.53
2023-05-25T08:13:00.870Z,10.33
2023-05-25T08:15:29.162Z,8.17
2023-05-25T08:17:57.694Z,10.00
2023-05-25T08:20:26.265Z,13.87
2023-05-25T08:22:57.195Z,10.80
2023-05-25T08:25:25.455Z,11.40
2023-05-25T08:27:55.312Z,10.53
2023-05-25T08:30:23.683Z,9.50
2023-05-25T08:32:51.979Z,9.70
2023-05-25T08:35:20.265Z,14.20
2023-05-25T08:37:48.567Z,7.80
2023-05-25T08:40:17.939Z,13.50
2023-05-25T08:42:46.489Z,14.50
2023-05-25T08:45:30.563Z,11.50
2023-05-25T08:48:05.255Z,10.43
2023-05-25T08:50:52.169Z,7.73
2023-05-25T08:53:22.786Z,12.43
2023-05-25T08:55:55.397Z,11.83
2023-05-25T08:58:32.093Z,15.53
2023-05-25T09:01:09.799Z,12.23
2023-05-25T09:03:39.636Z,8.93
2023-05-25T09:06:08.326Z,7.67
2023-05-25T09:08:39.385Z,10.33
2023-05-25T09:11:09.931Z,17.87
2023-05-25T09:13:38.833Z,10.03
2023-05-25T09:16:08.758Z,10.67
2023-05-25T09:18:37.626Z,15.90
2023-05-25T09:21:06.135Z,13.30
2023-05-25T09:23:35.524Z,7.47
2023-05-25T09:26:03.905Z,8.93
2023-05-25T09:28:32.144Z,10.27
2023-05-25T09:31:00.582Z,10.20
2023-05-25T09:33:30.215Z,8.63
2023-05-25T09:35:58.456Z,9.13
2023-05-25T09:38:27.226Z,9.53
2023-05-25T09:40:55.877Z,12.47
2023-05-25T09:43:39.787Z,11.50
2023-05-25T09:46:11.559Z,7.20
2023-05-25T09:48:42.168Z,8.10
2023-05-25T09:51:10.787Z,7.20
2023-05-25T09:53:39.105Z,6.53
2023-05-25T09:56:07.563Z,18.23
2023-05-25T09:58:36.202Z,20.03
2023-05-25T10:01:05.508Z,10.50
2023-05-25T10:03:33.851Z,13.57
2023-05-25T10:06:07.188Z,11.93
2023-05-25T10:08:35.675Z,12.23
2023-05-25T10:11:04.773Z,13.33
2023-05-25T10:13:34.721Z,9.70
2023-05-25T10:16:04.974Z,13.40
2023-05-25T10:18:37.079Z,12.93
2023-05-25T10:21:10.280Z,9.77
2023-05-25T10:23:42.755Z,10.07
2023-05-25T10:26:13.027Z,14.30
2023-05-25T10:28:43.241Z,13.17
2023-05-25T10:31:11.755Z,9.03
2023-05-25T10:33:40.429Z,9.33
2023-05-25T10:36:13.382Z,11.93
2023-05-25T10:38:44.743Z,10.93
2023-05-25T10:41:16.213Z,16.57
2023-05-25T10:43:44.806Z,11.10
2023-05-25T10:46:15.119Z,15.20
2023-05-25T10:48:48.057Z,16.30
2023-05-25T10:51:20.754Z,7.30
2023-05-25T10:53:59.733Z,7.47
2023-05-25T10:56:28.038Z,7.80
2023-05-25T10:58:56.943Z,8.90
2023-05-25T11:01:26.001Z,9.73
2023-05-25T11:03:59.167Z,5.20
2023-05-25T11:07:01.013Z,10.80
2023-05-25T11:09:32.119Z,13.00
2023-05-25T11:12:04.461Z,10.83
2023-05-25T11:14:36.121Z,21.53
2023-05-25T11:17:10.671Z,15.50
2023-05-25T11:19:43.791Z,11.90
2023-05-25T11:22:16.734Z,14.30
2023-05-25T11:24:46.721Z,8.50
2023-05-25T11:27:17.849Z,12.33
2023-05-25T11:29:46.157Z,11.30
2023-05-25T11:32:16.185Z,8.10
2023-05-25T11:34:46.594Z,12.20
2023-05-25T11:37:21.217Z,12.73
2023-05-25T11:39:51.879Z,7.47
2023-05-25T11:42:22.172Z,9.67
2023-05-25T11:44:50.697Z,17.00
2023-05-25T11:47:23.315Z,10.90
2023-05-25T11:49:51.890Z,7.50
2023-05-25T11:52:22.284Z,11.50
2023-05-25T11:54:56.001Z,13.40
2023-05-25T11:57:25.767Z,9.70
2023-05-25T11:59:55.034Z,13.80
2023-05-25T12:02:24.695Z,8.23
2023-05-25T12:04:57.146Z,7.10
2023-05-25T12:07:26.244Z,11.87
2023-05-25T12:10:07.039Z,7.33
2023-05-25T12:12:42.705Z,9.27
2023-05-25T12:15:12.726Z,9.53
2023-05-25T12:17:43.863Z,11.47
2023-05-25T12:20:15.342Z,12.33
2023-05-25T12:22:44.748Z,12.20
2023-05-25T12:25:16.032Z,9.90
2023-05-25T12:27:44.433Z,6.47
2023-05-25T12:30:13.189Z,8.30
2023-05-25T12:33:04.533Z,10.40
2023-05-25T12:35:46.773Z,9.90
2023-05-25T12:38:16.585Z,7.50
2023-05-25T12:40:46.387Z,13.67
2023-05-25T12:43:16.890Z,9.03
2023-05-25T12:45:45.517Z,9.10
2023-05-25T12:48:13.914Z,11.60
2023-05-25T12:51:00.823Z,15.03
2023-05-25T12:53:31.244Z,13.07
2023-05-25T12:56:05.218Z,13.77
2023-05-25T12:58:33.659Z,8.07
2023-05-25T13:01:02.234Z,10.80
2023-05-25T13:03:30.859Z,11.07
2023-05-25T13:06:02.487Z,9.33
2023-05-25T13:08:31.034Z,13.63
2023-05-25T13:11:00.067Z,12.90
2023-05-25T13:13:29.727Z,7.30
2023-05-25T13:15:58.337Z,6.27
2023-05-25T13:18:26.677Z,8.97
2023-05-25T13:20:56.758Z,8.67
2023-05-25T13:23:25.618Z,8.33
2023-05-25T13:25:53.831Z,11.23
2023-05-25T13:28:22.036Z,6.03
2023-05-25T13:30:51.645Z,10.13
2023-05-25T13:33:20.006Z,5.10
2023-05-25T13:35:58.517Z,8.57
2023-05-25T13:38:27.580Z,5.80
2023-05-25T13:40:55.872Z,7.30
2023-05-25T13:43:24.197Z,7.40
2023-05-25T13:45:53.871Z,7.60
2023-05-25T13:48:22.398Z,9.60
2023-05-25T13:50:50.721Z,7.93
2023-05-25T13:53:19.033Z,8.37
2023-05-25T13:55:47.715Z,9.77
2023-05-25T13:58:16.077Z,8.03
2023-05-25T14:00:44.576Z,11.03
2023-05-25T14:03:14.667Z,11.87
2023-05-25T14:05:43.297Z,13.77
2023-05-25T14:08:12.811Z,9.90
2023-05-25T14:10:43.397Z,10.00
2023-05-25T14:13:13.890Z,6.80
2023-05-25T14:15:42.286Z,11.47
2023-05-25T14:18:10.847Z,5.47
2023-05-25T14:20:42.670Z,8.53
2023-05-25T14:23:13.700Z,9.00
2023-05-25T14:25:44.297Z,5.33
2023-05-25T14:28:15.944Z,8.47
2023-05-25T14:30:44.176Z,4.43
2023-05-25T14:33:17.241Z,4.70
2023-05-25T14:35:47.205Z,9.43
2023-05-25T14:38:15.627Z,8.50
2023-05-25T14:40:43.935Z,6.00
2023-05-25T14:43:12.158Z,8.97
2023-05-25T14:45:40.431Z,10.13
2023-05-25T14:48:16.635Z,12.20
2023-05-25T14:50:46.665Z,5.07
2023-05-25T14:53:14.884Z,7.63
2023-05-25T14:55:43.487Z,6.07
2023-05-25T14:58:12.227Z,5.20
2023-05-25T15:00:40.463Z,6.50
2023-05-25T15:03:08.927Z,7.90
2023-05-25T15:05:37.215Z,8.60
2023-05-25T15:08:07.003Z,6.20
2023-05-25T15:10:35.347Z,5.43
2023-05-25T15:13:03.622Z,13.97
2023-05-25T15:15:32.217Z,5.33
2023-05-25T15:18:00.491Z,9.10
2023-05-25T15:20:28.824Z,8.73
2023-05-25T15:22:57.098Z,9.00
2023-05-25T15:25:35.097Z,10.30
2023-05-25T15:28:04.384Z,8.30
2023-05-25T15:30:34.169Z,5.67
2023-05-25T15:33:02.505Z,9.20
2023-05-25T15:35:32.606Z,5.73
2023-05-25T15:38:01.765Z,7.30
2023-05-25T15:40:31.521Z,7.13
2023-05-25T15:42:59.788Z,4.17
2023-05-25T15:45:28.029Z,7.60
2023-05-25T15:47:56.373Z,7.47
2023-05-25T15:50:24.787Z,9.57
2023-05-25T15:52:53.094Z,10.07
2023-05-25T15:55:27.372Z,7.07
2023-05-25T15:57:57.043Z,6.67
2023-05-25T16:00:25.890Z,7.70
2023-05-25T16:02:54.149Z,13.20
2023-05-25T16:05:22.414Z,8.53
2023-05-25T16:07:50.636Z,6.77
2023-05-25T16:10:18.888Z,7.03
2023-05-25T16:12:47.115Z,5.03
2023-05-25T16:15:16.906Z,8.40
2023-05-25T16:17:45.125Z,8.53
2023-05-25T16:20:13.903Z,7.00
2023-05-25T16:22:42.165Z,7.87
2023-05-25T16:25:11.004Z,7.50
2023-05-25T16:27:39.268Z,11.60
2023-05-25T16:30:10.028Z,6.00
2023-05-25T16:32:40.956Z,7.67
2023-05-25T16:35:09.816Z,7.67
2023-05-25T16:37:38.027Z,7.03
2023-05-25T16:40:09.866Z,7.23
2023-05-25T16:42:38.138Z,6.27
2023-05-25T16:45:07.588Z,4.67
2023-05-25T16:47:35.949Z,11.83
2023-05-25T16:50:06.300Z,8.47
2023-05-25T16:52:34.586Z,9.33
2023-05-25T16:55:02.806Z,5.80
2023-05-25T16:57:31.036Z,6.80
2023-05-25T16:59:59.263Z,6.93
2023-05-25T17:02:27.593Z,10.77
2023-05-25T17:04:55.905Z,7.43
2023-05-25T17:07:25.804Z,12.40
2023-05-25T17:09:56.631Z,10.33
2023-05-25T17:12:24.830Z,9.50
2023-05-25T17:14:53.089Z,5.00
2023-05-25T17:17:21.293Z,4.73
2023-05-25T17:19:52.269Z,7.13
2023-05-25T17:22:20.570Z,9.03
2023-05-25T17:24:50.204Z,6.60
2023-05-25T17:27:18.996Z,10.03
2023-05-25T17:29:47.218Z,5.03
2023-05-25T17:32:21.140Z,10.30
2023-05-25T17:34:49.544Z,7.50
2023-05-25T17:37:19.001Z,7.50
2023-05-25T17:39:47.399Z,10.20
2023-05-25T17:42:16.989Z,6.37
2023-05-25T17:44:45.201Z,8.30
2023-05-25T17:47:13.513Z,6.90
2023-05-25T17:49:41.858Z,5.83
2023-05-25T17:52:13.016Z,10.20
2023-05-25T17:54:41.547Z,9.60
2023-05-25T17:57:13.334Z,6.40
2023-05-25T17:59:45.507Z,10.53
2023-05-25T18:02:17.475Z,8.83
2023-05-25T18:04:45.869Z,9.93
2023-05-25T18:07:14.105Z,7.97
2023-05-25T18:09:42.365Z,10.63
2023-05-25T18:12:11.168Z,10.90
2023-05-25T18:14:39.632Z,8.37
2023-05-25T18:17:09.361Z,8.47
2023-05-25T18:19:37.828Z,8.77
2023-05-25T18:22:09.512Z,10.80
2023-05-25T18:24:40.576Z,11.63
2023-05-25T18:27:11.696Z,8.63
2023-05-25T18:29:39.905Z,9.03
2023-05-25T18:32:09.776Z,9.70
2023-05-25T18:34:38.298Z,7.03
2023-05-25T18:37:06.776Z,13.43
2023-05-25T18:39:38.242Z,26.10
2023-05-25T18:42:10.135Z,42.37
2023-05-25T18:44:38.457Z,27.93
2023-05-25T18:47:11.738Z,11.23
2023-05-25T18:49:39.964Z,16.60
2023-05-25T18:52:10.382Z,14.10
2023-05-25T18:54:39.288Z,18.43
2023-05-25T18:57:08.194Z,13.73
2023-05-25T18:59:36.433Z,12.47
2023-05-25T19:02:12.013Z,14.90
2023-05-25T19:04:40.397Z,12.80
2023-05-25T19:07:17.337Z,12.93
2023-05-25T19:09:48.246Z,9.53
2023-05-25T19:12:16.747Z,8.03
2023-05-25T19:14:44.962Z,13.77
2023-05-25T19:17:17.676Z,22.60
2023-05-25T19:19:45.927Z,18.37
2023-05-25T19:22:14.137Z,23.53
2023-05-25T19:24:44.313Z,10.98
2023-05-25T19:27:16.601Z,16.60
2023-05-25T19:29:45.556Z,16.67
2023-05-25T19:32:17.171Z,13.93
2023-05-25T19:34:45.755Z,19.20
2023-05-25T19:37:14.201Z,17.25
2023-05-25T19:39:43.730Z,13.20
2023-05-25T19:42:14.507Z,17.85
2023-05-25T19:44:42.789Z,16.02
2023-05-25T19:47:11.081Z,19.25
2023-05-25T19:49:47.861Z,19.95
2023-05-25T19:52:28.346Z,16.98
2023-05-25T19:54:56.794Z,14.57
2023-05-25T19:57:26.177Z,13.00
2023-05-25T19:59:54.429Z,13.38
2023-05-25T20:02:25.584Z,16.67
2023-05-25T20:04:55.306Z,18.77
2023-05-25T20:07:24.117Z,17.05
2023-05-25T20:09:55.510Z,14.52
2023-05-25T20:12:26.336Z,14.30
2023-05-25T20:14:55.038Z,10.27
2023-05-25T20:17:23.352Z,12.85
2023-05-25T20:19:51.737Z,16.10
2023-05-25T20:22:22.032Z,10.60
2023-05-25T20:24:50.577Z,11.27
2023-05-25T20:27:19.035Z,16.20
2023-05-25T20:29:50.286Z,13.98
2023-05-25T20:32:18.518Z,14.30
2023-05-25T20:34:46.740Z,13.77
2023-05-25T20:37:15.070Z,21.92
2023-05-25T20:39:44.842Z,26.15
2023-05-25T20:42:14.072Z,14.65
2023-05-25T20:44:42.320Z,16.40
2023-05-25T20:47:10.746Z,13.98
2023-05-25T20:49:38.988Z,17.52
2023-05-25T20:52:07.442Z,16.15
2023-05-25T20:54:36.725Z,15.05
2023-05-25T20:57:07.773Z,16.00
2023-05-25T20:59:36.027Z,11.02
2023-05-25T21:02:04.493Z,13.65
2023-05-25T21:04:33.025Z,13.73
2023-05-25T21:07:01.388Z,15.68
2023-05-25T21:09:29.632Z,13.50
2023-05-25T21:11:57.916Z,12.85
2023-05-25T21:14:27.533Z,13.68
2023-05-25T21:16:56.076Z,22.42
2023-05-25T21:19:24.488Z,18.13
2023-05-25T21:21:52.869Z,12.57
2023-05-25T21:24:21.159Z,19.95
2023-05-25T21:26:49.415Z,15.30
2023-05-25T21:29:17.631Z,17.90
2023-05-25T21:31:47.444Z,19.05
2023-05-25T21:34:15.825Z,16.70
2023-05-25T21:36:44.054Z,11.77
2023-05-25T21:39:12.278Z,14.00
2023-05-25T21:41:41.561Z,13.57
2023-05-25T21:44:13.116Z,14.30
2023-05-25T21:46:41.466Z,16.90
2023-05-25T21:49:11.146Z,31.17
2023-05-25T21:51:39.490Z,13.75
2023-05-25T21:54:07.776Z,15.65
2023-05-25T21:56:36.016Z,15.35
2023-05-25T21:59:04.633Z,15.30
2023-05-25T22:01:32.994Z,14.60
2023-05-25T22:04:02.265Z,20.75
2023-05-25T22:06:32.813Z,9.00
2023-05-25T22:09:02.203Z,15.02
2023-05-25T22:11:30.609Z,17.35
2023-05-25T22:13:59.640Z,12.27
2023-05-25T22:16:27.848Z,19.67
2023-05-25T22:18:56.101Z,16.02
2023-05-25T22:21:24.463Z,20.08
2023-05-25T22:23:54.325Z,15.48
2023-05-25T22:26:22.880Z,16.23
2023-05-25T22:28:51.171Z,17.83
2023-05-25T22:31:19.488Z,15.63
2023-05-25T22:33:47.777Z,19.88
2023-05-25T22:36:16.482Z,21.27
2023-05-25T22:38:44.756Z,15.00
2023-05-25T22:41:14.364Z,15.25
2023-05-25T22:43:43.591Z,14.25
2023-05-25T22:46:11.887Z,18.10
2023-05-25T22:48:40.340Z,27.65
2023-05-25T22:51:08.872Z,22.65
2023-05-25T22:53:37.102Z,19.33
2023-05-25T22:56:05.425Z,16.63
2023-05-25T22:58:35.079Z,22.48
2023-05-25T23:01:03.305Z,23.23
2023-05-25T23:03:31.598Z,22.13
2023-05-25T23:05:59.953Z,15.35
2023-05-25T23:08:28.568Z,20.65
2023-05-25T23:10:56.811Z,14.82
2023-05-25T23:13:27.830Z,20.73
2023-05-25T23:15:57.497Z,15.68
2023-05-25T23:18:25.784Z,15.07
2023-05-25T23:20:54.031Z,20.10
2023-05-25T23:23:22.259Z,19.65
2023-05-25T23:25:50.485Z,15.52
2023-05-25T23:28:19.182Z,19.90
2023-05-25T23:30:47.384Z,17.67
2023-05-25T23:33:18.370Z,20.63
2023-05-25T23:35:46.907Z,19.38
2023-05-25T23:38:15.717Z,11.57
2023-05-25T23:40:43.982Z,15.02
2023-05-25T23:43:12.856Z,17.50
2023-05-25T23:45:41.213Z,19.65
2023-05-25T23:48:09.593Z,18.50
2023-05-25T23:50:40.312Z,16.65
2023-05-25T23:53:08.582Z,20.55
2023-05-25T23:55:36.818Z,20.73
2023-05-25T23:58:05.754Z,20.23
